Time,TemperatureF,DewpointF,PressureIn,WindDirection,WindDirectionDegrees,WindSpeedMPH,WindSpeedGustMPH,Humidity,HourlyPrecipIn,Conditions,Clouds,dailyrainin,SoftwareType,DateUTC
2013-06-27 00:05:00,76.8,72.0,30.00,SW,216,3.0,-999.0,84,-99.99,,,0.00,weatherlink.com 1.10,2013-06-27 05:05:00,
2013-06-27 00:20:00,76.4,71.0,29.98,SSW,207,2.0,-999.0,84,-99.99,,,0.00,weatherlink.com 1.10,2013-06-27 05:20:00,
2013-06-27 00:35:00,76.2,71.0,29.97,SSW,200,10.0,-999.0,84,-99.99,,,0.00,weatherlink.com 1.10,2013-06-27 05:35:00,
2013-06-27 00:50:00,76.3,71.0,29.97,SW,232,7.0,-999.0,84,-99.99,,,0.00,weatherlink.com 1.10,2013-06-27 05:50:00,
2013-06-27 01:05:00,76.4,71.0,29.97,WSW,240,6.0,-999.0,84,-99.99,,,0.00,weatherlink.com 1.10,2013-06-27 06:05:00,
2013-06-27 01:20:00,76.4,71.0,29.98,WSW,240,6.0,-999.0,84,-99.99,,,0.00,weatherlink.com 1.10,2013-06-27 06:20:00,
2013-06-27 01:35:00,76.2,71.0,29.99,WSW,242,4.0,-999.0,85,-99.99,,,0.00,weatherlink.com 1.10,2013-06-27 06:35:00,
2013-06-27 01:50:00,75.8,71.0,30.00,WSW,246,6.0,-999.0,85,-99.99,,,0.00,weatherlink.com 1.10,2013-06-27 06:50:00,
2013-06-27 02:05:00,75.5,71.0,30.00,WSW,238,0.0,-999.0,86,-99.99,,,0.00,weatherlink.com 1.10,2013-06-27 07:05:00,
2013-06-27 02:20:00,75.1,71.0,30.00,SW,232,4.0,-999.0,86,-99.99,,,0.00,weatherlink.com 1.10,2013-06-27 07:20:00,
2013-06-27 02:35:00,74.7,71.0,29.98,WSW,237,2.0,-999.0,87,-99.99,,,0.00,weatherlink.com 1.10,2013-06-27 07:35:00,
2013-06-27 02:50:00,74.6,71.0,29.98,WSW,240,4.0,-999.0,87,-99.99,,,0.00,weatherlink.com 1.10,2013-06-27 07:50:00,
2013-06-27 03:05:00,74.7,71.0,29.97,SW,219,4.0,-999.0,87,-99.99,,,0.00,weatherlink.com 1.10,2013-06-27 08:05:00,
2013-06-27 03:20:00,74.8,71.0,29.98,SW,231,3.0,-999.0,87,-99.99,,,0.00,weatherlink.com 1.10,2013-06-27 08:20:00,
2013-06-27 03:50:00,74.7,71.0,29.98,WSW,240,9.0,-999.0,87,-99.99,,,0.00,weatherlink.com 1.10,2013-06-27 08:50:00,
2013-06-27 04:05:00,75.0,71.0,29.96,SW,236,13.0,-999.0,86,-99.99,,,0.00,weatherlink.com 1.10,2013-06-27 09:05:00,
2013-06-27 04:20:00,75.0,70.0,29.94,SW,221,7.0,-999.0,85,-99.99,,,0.00,weatherlink.com 1.10,2013-06-27 09:20:00,
2013-06-27 04:35:00,75.0,70.0,29.93,WSW,242,11.0,-999.0,85,-99.99,,,0.00,weatherlink.com 1.10,2013-06-27 09:35:00,
2013-06-27 04:50:00,74.2,70.0,29.90,SW,223,19.0,-999.0,86,-99.99,,,0.00,weatherlink.com 1.10,2013-06-27 09:50:00,
2013-06-27 05:06:00,72.6,69.0,29.91,WSW,238,9.0,-999.0,88,-99.99,,,0.00,weatherlink.com 1.10,2013-06-27 10:06:00,
2013-06-27 05:21:00,70.8,67.0,29.91,West,259,10.0,-999.0,88,-99.99,,,0.00,weatherlink.com 1.10,2013-06-27 10:21:00,
2013-06-27 05:36:00,70.3,67.0,29.92,WSW,254,1.0,-999.0,88,-99.99,,,0.00,weatherlink.com 1.10,2013-06-27 10:36:00,
2013-06-27 05:51:00,69.8,66.0,29.94,SW,218,6.0,-999.0,88,-99.99,,,0.00,weatherlink.com 1.10,2013-06-27 10:51:00,
2013-06-27 06:06:00,69.4,66.0,29.97,WSW,254,7.0,-999.0,88,-99.99,,,0.00,weatherlink.com 1.10,2013-06-27 11:06:00,
2013-06-27 06:21:00,69.0,66.0,29.98,West,275,3.0,-999.0,89,-99.99,,,0.00,weatherlink.com 1.10,2013-06-27 11:21:00,
2013-06-27 06:36:00,68.9,66.0,29.99,NW,317,1.0,-999.0,89,-99.99,,,0.00,weatherlink.com 1.10,2013-06-27 11:36:00,
2013-06-27 06:51:00,69.2,66.0,29.98,West,261,7.0,-999.0,89,-99.99,,,0.00,weatherlink.com 1.10,2013-06-27 11:51:00,
2013-06-27 07:06:00,69.5,66.0,29.98,WSW,240,6.0,-999.0,89,-99.99,,,0.00,weatherlink.com 1.10,2013-06-27 12:06:00,
2013-06-27 07:21:00,70.3,67.0,29.98,SW,231,4.0,-999.0,89,-99.99,,,0.00,weatherlink.com 1.10,2013-06-27 12:21:00,
2013-06-27 07:36:00,71.6,68.0,29.98,SW,226,8.0,-999.0,88,-99.99,,,0.00,weatherlink.com 1.10,2013-06-27 12:36:00,
2013-06-27 07:51:00,72.0,68.0,29.98,WSW,243,6.0,-999.0,88,-99.99,,,0.00,weatherlink.com 1.10,2013-06-27 12:51:00,
2013-06-27 08:06:00,72.2,69.0,29.98,WSW,244,0.0,-999.0,88,-99.99,,,0.00,weatherlink.com 1.10,2013-06-27 13:06:00,
2013-06-27 08:21:00,71.8,68.0,29.98,NW,309,2.0,-999.0,88,-99.99,,,0.00,weatherlink.com 1.10,2013-06-27 13:21:00,
2013-06-27 08:36:00,71.3,68.0,29.98,NW,309,0.0,-999.0,89,-99.99,,,0.00,weatherlink.com 1.10,2013-06-27 13:36:00,
2013-06-27 08:51:00,71.4,68.0,29.98,SSE,160,0.0,-999.0,88,-99.99,,,0.00,weatherlink.com 1.10,2013-06-27 13:51:00,
2013-06-27 09:06:00,71.5,68.0,29.98,SSE,161,0.0,-999.0,88,-99.99,,,0.00,weatherlink.com 1.10,2013-06-27 14:06:00,
2013-06-27 09:21:00,71.9,69.0,29.98,SSE,164,0.0,-999.0,89,-99.99,,,0.00,weatherlink.com 1.10,2013-06-27 14:21:00,
2013-06-27 09:36:00,72.1,69.0,29.97,South,188,4.0,-999.0,89,-99.99,,,0.00,weatherlink.com 1.10,2013-06-27 14:36:00,
2013-06-27 09:51:00,72.2,69.0,29.97,SSW,208,9.0,-999.0,88,-99.99,,,0.00,weatherlink.com 1.10,2013-06-27 14:51:00,
2013-06-27 10:06:00,72.8,69.0,29.97,SW,227,7.0,-999.0,88,-99.99,,,0.00,weatherlink.com 1.10,2013-06-27 15:06:00,
2013-06-27 10:21:00,73.7,70.0,29.97,WSW,251,10.0,-999.0,88,-99.99,,,0.00,weatherlink.com 1.10,2013-06-27 15:21:00,
2013-06-27 10:36:00,74.9,71.0,29.96,WSW,243,8.0,-999.0,88,-99.99,,,0.00,weatherlink.com 1.10,2013-06-27 15:36:00,
2013-06-27 10:51:00,75.7,72.0,29.96,SW,226,11.0,-999.0,88,-99.99,,,0.00,weatherlink.com 1.10,2013-06-27 15:51:00,
2013-06-27 11:06:00,76.6,73.0,29.95,SW,236,9.0,-999.0,88,-99.99,,,0.00,weatherlink.com 1.10,2013-06-27 16:06:00,
2013-06-27 11:21:00,77.3,73.0,29.95,WSW,242,6.0,-999.0,87,-99.99,,,0.00,weatherlink.com 1.10,2013-06-27 16:21:00,
2013-06-27 11:36:00,78.4,74.0,29.95,WSW,245,7.0,-999.0,86,-99.99,,,0.00,weatherlink.com 1.10,2013-06-27 16:36:00,
2013-06-27 11:51:00,78.7,74.0,29.95,West,265,6.0,-999.0,86,-99.99,,,0.00,weatherlink.com 1.10,2013-06-27 16:51:00,
2013-06-27 12:06:00,78.5,74.0,29.95,West,273,0.0,-999.0,87,-99.99,,,0.00,weatherlink.com 1.10,2013-06-27 17:06:00,
2013-06-27 12:36:00,82.0,76.0,29.94,NW,315,7.0,-999.0,83,-99.99,,,0.00,weatherlink.com 1.10,2013-06-27 17:36:00,
2013-06-27 12:51:00,82.8,77.0,29.93,SW,234,6.0,-999.0,83,-99.99,,,0.00,weatherlink.com 1.10,2013-06-27 17:51:00,
2013-06-27 13:06:00,83.9,77.0,29.93,WNW,288,1.0,-999.0,79,-99.99,,,0.00,weatherlink.com 1.10,2013-06-27 18:06:00,
2013-06-27 13:21:00,84.2,77.0,29.93,WNW,292,1.0,-999.0,79,-99.99,,,0.00,weatherlink.com 1.10,2013-06-27 18:21:00,
2013-06-27 13:36:00,85.2,77.0,29.92,West,267,4.0,-999.0,76,-99.99,,,0.00,weatherlink.com 1.10,2013-06-27 18:36:00,
2013-06-27 13:51:00,86.6,77.0,29.92,NW,311,2.0,-999.0,74,-99.99,,,0.00,weatherlink.com 1.10,2013-06-27 18:51:00,
2013-06-27 14:06:00,86.3,78.0,29.92,NW,326,5.0,-999.0,76,-99.99,,,0.00,weatherlink.com 1.10,2013-06-27 19:06:00,
2013-06-27 14:21:00,86.1,77.0,29.91,NW,322,8.0,-999.0,74,-99.99,,,0.00,weatherlink.com 1.10,2013-06-27 19:21:00,
2013-06-27 14:36:00,86.8,76.0,29.91,West,264,2.0,-999.0,70,-99.99,,,0.00,weatherlink.com 1.10,2013-06-27 19:36:00,
2013-06-27 14:51:00,87.6,75.0,29.91,WSW,239,3.0,-999.0,66,-99.99,,,0.00,weatherlink.com 1.10,2013-06-27 19:51:00,
2013-06-27 15:06:00,87.7,75.0,29.90,WNW,301,5.0,-999.0,66,-99.99,,,0.00,weatherlink.com 1.10,2013-06-27 20:06:00,
2013-06-27 15:21:00,88.6,75.0,29.90,WNW,285,5.0,-999.0,65,-99.99,,,0.00,weatherlink.com 1.10,2013-06-27 20:21:00,
2013-06-27 15:36:00,88.1,74.0,29.90,WNW,302,1.0,-999.0,64,-99.99,,,0.00,weatherlink.com 1.10,2013-06-27 20:36:00,
2013-06-27 15:51:00,88.7,74.0,29.89,West,271,3.0,-999.0,63,-99.99,,,0.00,weatherlink.com 1.10,2013-06-27 20:51:00,
2013-06-27 16:06:00,88.9,73.0,29.88,North,350,3.0,-999.0,60,-99.99,,,0.00,weatherlink.com 1.10,2013-06-27 21:06:00,
2013-06-27 16:21:00,88.9,72.0,29.88,WNW,296,0.0,-999.0,58,-99.99,,,0.00,weatherlink.com 1.10,2013-06-27 21:21:00,
2013-06-27 16:36:00,89.3,72.0,29.88,WNW,282,7.0,-999.0,57,-99.99,,,0.00,weatherlink.com 1.10,2013-06-27 21:36:00,
2013-06-27 16:51:00,89.0,72.0,29.87,West,275,7.0,-999.0,57,-99.99,,,0.00,weatherlink.com 1.10,2013-06-27 21:51:00,
2013-06-27 17:06:00,89.2,73.0,29.86,West,275,4.0,-999.0,59,-99.99,,,0.00,weatherlink.com 1.10,2013-06-27 22:06:00,
2013-06-27 17:21:00,89.0,73.0,29.86,WNW,282,5.0,-999.0,59,-99.99,,,0.00,weatherlink.com 1.10,2013-06-27 22:21:00,
2013-06-27 17:36:00,89.0,73.0,29.86,West,259,2.0,-999.0,60,-99.99,,,0.00,weatherlink.com 1.10,2013-06-27 22:36:00,
2013-06-27 17:51:00,88.6,74.0,29.86,West,263,3.0,-999.0,63,-99.99,,,0.00,weatherlink.com 1.10,2013-06-27 22:51:00,
2013-06-27 18:06:00,88.4,74.0,29.86,SSW,211,3.0,-999.0,62,-99.99,,,0.00,weatherlink.com 1.10,2013-06-27 23:06:00,
2013-06-27 18:22:00,88.0,73.0,29.85,WNW,282,3.0,-999.0,61,-99.99,,,0.00,weatherlink.com 1.10,2013-06-27 23:22:00,
2013-06-27 18:37:00,87.4,73.0,29.85,WNW,291,6.0,-999.0,62,-99.99,,,0.00,weatherlink.com 1.10,2013-06-27 23:37:00,
2013-06-27 18:52:00,87.4,73.0,29.86,SW,220,0.0,-999.0,63,-99.99,,,0.00,weatherlink.com 1.10,2013-06-27 23:52:00,
2013-06-27 19:07:00,87.1,73.0,29.86,WNW,286,0.0,-999.0,64,-99.99,,,0.00,weatherlink.com 1.10,2013-06-28 00:07:00,
2013-06-27 19:22:00,86.0,73.0,29.87,WSW,257,0.0,-999.0,66,-99.99,,,0.00,weatherlink.com 1.10,2013-06-28 00:22:00,
2013-06-27 19:52:00,83.9,73.0,29.87,WNW,284,0.0,-999.0,70,-99.99,,,0.00,weatherlink.com 1.10,2013-06-28 00:52:00,
2013-06-27 20:07:00,83.1,73.0,29.87,West,260,1.0,-999.0,72,-99.99,,,0.00,weatherlink.com 1.10,2013-06-28 01:07:00,
2013-06-27 20:37:00,81.8,73.0,29.88,West,259,2.0,-999.0,75,-99.99,,,0.00,weatherlink.com 1.10,2013-06-28 01:37:00,
2013-06-27 20:52:00,81.1,73.0,29.88,West,259,0.0,-999.0,76,-99.99,,,0.00,weatherlink.com 1.10,2013-06-28 01:52:00,
2013-06-27 21:22:00,80.9,72.0,29.88,West,271,1.0,-999.0,75,-99.99,,,0.00,weatherlink.com 1.10,2013-06-28 02:22:00,
2013-06-27 21:37:00,80.9,72.0,29.88,West,272,0.0,-999.0,74,-99.99,,,0.00,weatherlink.com 1.10,2013-06-28 02:37:00,
2013-06-27 21:52:00,80.4,72.0,29.89,West,267,1.0,-999.0,75,-99.99,,,0.00,weatherlink.com 1.10,2013-06-28 02:52:00,
2013-06-27 22:07:00,80.1,72.0,29.89,West,267,0.0,-999.0,75,-99.99,,,0.00,weatherlink.com 1.10,2013-06-28 03:07:00,
2013-06-27 22:22:00,80.0,72.0,29.90,West,267,0.0,-999.0,76,-99.99,,,0.00,weatherlink.com 1.10,2013-06-28 03:22:00,
2013-06-27 22:52:00,79.6,71.0,29.90,West,267,0.0,-999.0,76,-99.99,,,0.00,weatherlink.com 1.10,2013-06-28 03:52:00,
2013-06-27 23:07:00,79.1,72.0,29.90,West,267,0.0,-999.0,78,-99.99,,,0.00,weatherlink.com 1.10,2013-06-28 04:07:00,
2013-06-27 23:22:00,78.8,71.0,29.90,West,267,0.0,-999.0,78,-99.99,,,0.00,weatherlink.com 1.10,2013-06-28 04:22:00,
2013-06-27 23:37:00,79.3,72.0,29.89,West,267,1.0,-999.0,78,-99.99,,,0.00,weatherlink.com 1.10,2013-06-28 04:37:00,
2013-06-27 23:52:00,77.0,71.0,29.88,West,267,0.0,-999.0,82,-99.99,,,0.00,weatherlink.com 1.10,2013-06-28 04:52:00,